Time,TemperatureF,DewpointF,PressureIn,WindDirection,WindDirectionDegrees,WindSpeedMPH,WindSpeedGustMPH,Humidity,HourlyPrecipIn,Conditions,Clouds,dailyrainin,SoftwareType,DateUTC
2013-01-15 00:02:00,39.0,36.0,29.88,SE,135,0.0,0.0,90,-99.99,,,-99.99,,2013-01-14 23:02:00,
2013-01-15 00:12:00,39.0,36.0,29.88,SE,135,0.0,0.0,90,-99.99,,,-99.99,,2013-01-14 23:12:00,
2013-01-15 00:22:00,38.0,35.0,29.88,SE,135,0.0,0.0,90,-99.99,,,-99.99,,2013-01-14 23:22:00,
2013-01-15 00:32:00,38.0,35.0,29.88,SE,135,0.0,0.0,90,-99.99,,,-99.99,,2013-01-14 23:32:00,
2013-01-15 00:42:00,38.0,35.0,29.88,SE,135,0.0,0.0,90,-99.99,,,-99.99,,2013-01-14 23:42:00,
2013-01-15 00:53:00,38.0,35.0,29.88,SE,134,0.0,0.0,90,-99.99,,,-99.99,,2013-01-14 23:53:00,
2013-01-15 01:02:00,37.0,34.0,29.88,SE,136,0.0,0.0,90,-99.99,,,-99.99,,2013-01-15 00:02:00,
2013-01-15 01:12:00,37.0,34.0,29.88,SE,136,0.0,0.0,90,-99.99,,,-99.99,,2013-01-15 00:12:00,
2013-01-15 01:22:00,37.0,34.0,29.88,SE,136,0.0,0.0,90,-99.99,,,-99.99,,2013-01-15 00:22:00,
2013-01-15 01:32:00,36.0,33.0,29.88,SE,133,0.0,0.0,88,-99.99,,,-99.99,,2013-01-15 00:32:00,
2013-01-15 01:42:00,36.0,33.0,29.88,SE,133,0.0,0.0,88,-99.99,,,-99.99,,2013-01-15 00:42:00,
2013-01-15 01:53:00,36.0,33.0,29.88,SE,135,0.0,0.0,90,-99.99,,,-99.99,,2013-01-15 00:53:00,
2013-01-15 02:02:00,35.0,32.0,29.85,SE,132,0.0,0.0,88,-99.99,,,-99.99,,2013-01-15 01:02:00,
2013-01-15 02:12:00,35.0,32.0,29.85,SE,136,0.0,0.0,88,-99.99,,,-99.99,,2013-01-15 01:12:00,
2013-01-15 02:22:00,35.0,32.0,29.85,SE,136,0.0,0.0,88,-99.99,,,-99.99,,2013-01-15 01:22:00,
2013-01-15 02:32:00,34.0,31.0,29.85,SE,135,0.0,0.0,88,-99.99,,,-99.99,,2013-01-15 01:32:00,
2013-01-15 02:42:00,34.0,31.0,29.85,SE,135,0.0,0.0,88,-99.99,,,-99.99,,2013-01-15 01:42:00,
2013-01-15 02:52:00,34.0,31.0,29.85,SE,135,0.0,0.0,88,-99.99,,,-99.99,,2013-01-15 01:52:00,
2013-01-15 03:02:00,32.0,29.0,29.85,SE,132,0.0,0.0,88,-99.99,,,-99.99,,2013-01-15 02:02:00,
2013-01-15 03:11:00,32.0,29.0,29.85,SE,132,0.0,0.0,88,-99.99,,,-99.99,,2013-01-15 02:11:00,
2013-01-15 03:22:00,33.0,29.0,29.88,SE,132,0.0,0.0,85,-99.99,,,-99.99,,2013-01-15 02:22:00,
2013-01-15 03:32:00,32.0,29.0,29.85,SE,135,0.0,0.0,88,-99.99,,,-99.99,,2013-01-15 02:32:00,
2013-01-15 03:42:00,32.0,29.0,29.85,SE,135,0.0,0.0,88,-99.99,,,-99.99,,2013-01-15 02:42:00,
2013-01-15 03:52:00,33.0,30.0,29.85,SE,132,0.0,0.0,87,-99.99,,,-99.99,,2013-01-15 02:52:00,
2013-01-15 04:02:00,34.0,31.0,29.85,SE,135,0.0,0.0,87,-99.99,,,-99.99,,2013-01-15 03:02:00,
2013-01-15 04:11:00,34.0,31.0,29.85,SE,135,0.0,0.0,87,-99.99,,,-99.99,,2013-01-15 03:11:00,
2013-01-15 04:22:00,34.0,31.0,29.85,SE,132,0.0,0.0,87,-99.99,,,-99.99,,2013-01-15 03:22:00,
2013-01-15 04:32:00,34.0,31.0,29.85,SE,132,0.0,0.0,87,-99.99,,,-99.99,,2013-01-15 03:32:00,
2013-01-15 04:42:00,34.0,31.0,29.85,SE,132,0.0,0.0,87,-99.99,,,-99.99,,2013-01-15 03:42:00,
2013-01-15 04:52:00,35.0,32.0,29.85,SE,135,0.0,0.0,87,-99.99,,,-99.99,,2013-01-15 03:52:00,
2013-01-15 05:02:00,35.0,32.0,29.83,SE,135,0.0,0.0,87,-99.99,,,-99.99,,2013-01-15 04:02:00,
2013-01-15 05:12:00,35.0,32.0,29.83,SE,135,0.0,0.0,87,-99.99,,,-99.99,,2013-01-15 04:12:00,
2013-01-15 05:22:00,35.0,32.0,29.83,SE,135,0.0,0.0,87,-99.99,,,-99.99,,2013-01-15 04:22:00,
2013-01-15 05:32:00,36.0,32.0,29.80,SE,131,0.0,0.0,85,-99.99,,,-99.99,,2013-01-15 04:32:00,
2013-01-15 05:42:00,36.0,32.0,29.80,SE,131,0.0,0.0,85,-99.99,,,-99.99,,2013-01-15 04:42:00,
2013-01-15 05:52:00,36.0,32.0,29.80,SE,131,0.0,0.0,85,-99.99,,,-99.99,,2013-01-15 04:52:00,
2013-01-15 06:03:00,36.0,32.0,29.80,SE,131,0.0,0.0,85,-99.99,,,-99.99,,2013-01-15 05:03:00,
2013-01-15 06:12:00,37.0,34.0,29.80,SE,134,0.0,0.0,87,-99.99,,,-99.99,,2013-01-15 05:12:00,
2013-01-15 06:22:00,37.0,34.0,29.80,SE,134,0.0,0.0,87,-99.99,,,-99.99,,2013-01-15 05:22:00,
2013-01-15 06:33:00,36.0,33.0,29.80,SE,135,0.0,0.0,87,-99.99,,,-99.99,,2013-01-15 05:33:00,
2013-01-15 06:42:00,36.0,33.0,29.80,SE,135,0.0,0.0,87,-99.99,,,-99.99,,2013-01-15 05:42:00,
2013-01-15 06:52:00,36.0,33.0,29.80,SE,135,0.0,0.0,87,-99.99,,,-99.99,,2013-01-15 05:52:00,
2013-01-15 07:02:00,36.0,32.0,29.77,SE,132,0.0,0.0,85,-99.99,,,-99.99,,2013-01-15 06:02:00,
2013-01-15 07:12:00,36.0,32.0,29.77,SE,132,0.0,0.0,85,-99.99,,,-99.99,,2013-01-15 06:12:00,
2013-01-15 07:22:00,36.0,32.0,29.77,SE,132,0.0,0.0,85,-99.99,,,-99.99,,2013-01-15 06:22:00,
2013-01-15 07:32:00,36.0,32.0,29.77,SE,133,0.0,0.0,85,-99.99,,,-99.99,,2013-01-15 06:32:00,
2013-01-15 07:42:00,36.0,32.0,29.77,SE,133,0.0,0.0,85,-99.99,,,-99.99,,2013-01-15 06:42:00,
2013-01-15 07:52:00,37.0,34.0,29.77,SE,135,0.0,0.0,87,-99.99,,,-99.99,,2013-01-15 06:52:00,
2013-01-15 08:02:00,37.0,34.0,29.74,SE,133,0.0,0.0,87,-99.99,,,-99.99,,2013-01-15 07:02:00,
2013-01-15 08:12:00,37.0,34.0,29.74,SE,133,0.0,0.0,87,-99.99,,,-99.99,,2013-01-15 07:12:00,
2013-01-15 08:22:00,37.0,34.0,29.74,SE,133,0.0,0.0,87,-99.99,,,-99.99,,2013-01-15 07:22:00,
2013-01-15 08:32:00,37.0,34.0,29.74,SE,135,0.0,0.0,88,-99.99,,,-99.99,,2013-01-15 07:32:00,
2013-01-15 08:42:00,37.0,34.0,29.74,SE,135,0.0,0.0,88,-99.99,,,-99.99,,2013-01-15 07:42:00,
2013-01-15 08:52:00,37.0,34.0,29.74,SE,135,0.0,0.0,90,-99.99,,,-99.99,,2013-01-15 07:52:00,
2013-01-15 09:02:00,37.0,37.0,29.71,SE,140,0.0,0.0,99,-99.99,,,-99.99,,2013-01-15 08:02:00,
2013-01-15 09:11:00,37.0,37.0,29.71,SE,140,0.0,0.0,99,-99.99,,,-99.99,,2013-01-15 08:11:00,
2013-01-15 09:22:00,38.0,38.0,29.74,SSE,147,0.0,0.0,99,-99.99,,,-99.99,,2013-01-15 08:22:00,
2013-01-15 09:32:00,38.0,38.0,29.74,SSE,147,0.0,0.0,99,-99.99,,,-99.99,,2013-01-15 08:32:00,
2013-01-15 09:42:00,38.0,38.0,29.74,SSE,147,0.0,0.0,99,-99.99,,,-99.99,,2013-01-15 08:42:00,
2013-01-15 09:52:00,39.0,39.0,29.71,SSE,148,0.0,0.0,99,-99.99,,,-99.99,,2013-01-15 08:52:00,
2013-01-15 10:02:00,40.0,40.0,29.74,SSE,149,0.0,0.0,99,-99.99,,,-99.99,,2013-01-15 09:02:00,
2013-01-15 10:11:00,40.0,40.0,29.74,SSE,149,0.0,0.0,99,-99.99,,,-99.99,,2013-01-15 09:11:00,
2013-01-15 10:22:00,40.0,40.0,29.74,SSE,149,0.0,0.0,99,-99.99,,,-99.99,,2013-01-15 09:22:00,
2013-01-15 10:33:00,41.0,41.0,29.74,SSE,149,0.0,0.0,99,-99.99,,,-99.99,,2013-01-15 09:33:00,
2013-01-15 10:42:00,41.0,41.0,29.74,SSE,149,0.0,0.0,99,-99.99,,,-99.99,,2013-01-15 09:42:00,
2013-01-15 10:52:00,41.0,41.0,29.74,SSE,151,0.0,0.0,99,-99.99,,,-99.99,,2013-01-15 09:52:00,
2013-01-15 11:02:00,41.0,41.0,29.74,SSE,151,0.0,0.0,99,-99.99,,,-99.99,,2013-01-15 10:02:00,
2013-01-15 11:11:00,41.0,41.0,29.74,SSE,151,0.0,0.0,99,-99.99,,,-99.99,,2013-01-15 10:11:00,
2013-01-15 11:22:00,42.0,42.0,29.71,SSE,149,0.0,0.0,99,-99.99,,,-99.99,,2013-01-15 10:22:00,
2013-01-15 11:32:00,41.0,41.0,29.71,SSE,151,0.0,0.0,99,-99.99,,,-99.99,,2013-01-15 10:32:00,
2013-01-15 11:42:00,41.0,41.0,29.71,SSE,151,0.0,0.0,99,-99.99,,,-99.99,,2013-01-15 10:42:00,
2013-01-15 11:52:00,41.0,41.0,29.74,SSE,151,0.0,0.0,99,-99.99,,,-99.99,,2013-01-15 10:52:00,
2013-01-15 12:02:00,41.0,41.0,29.74,SSE,151,0.0,0.0,99,-99.99,,,-99.99,,2013-01-15 11:02:00,
2013-01-15 12:11:00,46.0,46.0,29.74,SSE,156,0.0,0.0,99,-99.99,,,-99.99,,2013-01-15 11:11:00,
2013-01-15 12:22:00,46.0,46.0,29.74,SSE,156,0.0,0.0,99,-99.99,,,-99.99,,2013-01-15 11:22:00,
2013-01-15 12:33:00,46.0,46.0,29.74,SSE,156,0.0,0.0,99,-99.99,,,-99.99,,2013-01-15 11:33:00,
2013-01-15 12:42:00,46.0,46.0,29.71,SSE,156,0.0,0.0,99,-99.99,,,-99.99,,2013-01-15 11:42:00,
2013-01-15 12:43:00,46.0,46.0,29.74,SSE,156,0.0,0.0,99,-99.99,,,-99.99,,2013-01-15 11:43:00,
2013-01-15 12:52:00,46.0,46.0,29.74,SSE,156,0.0,0.0,99,-99.99,,,-99.99,,2013-01-15 11:52:00,
2013-01-15 13:02:00,46.0,46.0,29.71,SSE,156,0.0,0.0,99,-99.99,,,-99.99,,2013-01-15 12:02:00,
2013-01-15 13:12:00,46.0,46.0,29.71,SSE,156,0.0,0.0,99,-99.99,,,-99.99,,2013-01-15 12:12:00,
2013-01-15 13:22:00,46.0,46.0,29.71,SSE,156,0.0,0.0,99,-99.99,,,-99.99,,2013-01-15 12:22:00,
2013-01-15 13:32:00,46.0,46.0,29.71,SSE,156,0.0,0.0,99,-99.99,,,-99.99,,2013-01-15 12:32:00,
2013-01-15 13:53:00,47.0,47.0,29.71,South,183,0.0,0.0,99,-99.99,,,-99.99,,2013-01-15 12:53:00,
2013-01-15 14:03:00,50.0,50.0,29.71,South,184,0.0,0.0,99,-99.99,,,-99.99,,2013-01-15 13:03:00,
2013-01-15 14:12:00,50.0,50.0,29.71,South,184,0.0,0.0,99,-99.99,,,-99.99,,2013-01-15 13:12:00,
2013-01-15 14:22:00,50.0,50.0,29.71,South,184,0.0,0.0,99,-99.99,,,-99.99,,2013-01-15 13:22:00,
2013-01-15 14:32:00,49.0,49.0,29.71,South,179,0.0,0.0,99,-99.99,,,-99.99,,2013-01-15 13:32:00,
2013-01-15 14:42:00,49.0,49.0,29.71,South,179,0.0,0.0,99,-99.99,,,-99.99,,2013-01-15 13:42:00,
2013-01-15 14:53:00,48.0,48.0,29.71,South,181,0.0,0.0,99,-99.99,,,-99.99,,2013-01-15 13:53:00,
2013-01-15 15:02:00,48.0,48.0,29.71,South,180,0.0,0.0,99,-99.99,,,-99.99,,2013-01-15 14:02:00,
2013-01-15 15:11:00,48.0,48.0,29.71,South,180,0.0,0.0,99,-99.99,,,-99.99,,2013-01-15 14:11:00,
2013-01-15 15:22:00,49.0,49.0,29.71,South,177,0.0,0.0,99,-99.99,,,-99.99,,2013-01-15 14:22:00,
2013-01-15 15:33:00,49.0,49.0,29.74,South,176,0.0,0.0,99,-99.99,,,-99.99,,2013-01-15 14:33:00,
2013-01-15 15:43:00,49.0,49.0,29.74,South,176,0.0,0.0,99,-99.99,,,-99.99,,2013-01-15 14:43:00,
2013-01-15 15:53:00,48.0,48.0,29.74,South,177,0.0,0.0,99,-99.99,,,-99.99,,2013-01-15 14:53:00,
2013-01-15 16:02:00,48.0,48.0,29.74,South,173,0.0,0.0,99,-99.99,,,-99.99,,2013-01-15 15:02:00,
2013-01-15 16:12:00,48.0,48.0,29.74,South,173,0.0,0.0,99,-99.99,,,-99.99,,2013-01-15 15:12:00,
2013-01-15 16:22:00,47.0,47.0,29.74,South,174,0.0,0.0,99,-99.99,,,-99.99,,2013-01-15 15:22:00,
2013-01-15 16:33:00,47.0,47.0,29.74,South,174,0.0,0.0,99,-99.99,,,-99.99,,2013-01-15 15:33:00,
2013-01-15 16:43:00,47.0,47.0,29.74,South,174,0.0,0.0,99,-99.99,,,-99.99,,2013-01-15 15:43:00,
2013-01-15 16:53:00,47.0,47.0,29.74,South,174,0.0,0.0,99,-99.99,,,-99.99,,2013-01-15 15:53:00,
2013-01-15 17:02:00,47.0,47.0,29.77,South,174,0.0,0.0,99,-99.99,,,-99.99,,2013-01-15 16:02:00,
2013-01-15 17:12:00,47.0,47.0,29.77,South,174,0.0,0.0,99,-99.99,,,-99.99,,2013-01-15 16:12:00,
2013-01-15 17:22:00,47.0,47.0,29.77,South,174,0.0,0.0,99,-99.99,,,-99.99,,2013-01-15 16:22:00,
2013-01-15 17:33:00,46.0,46.0,29.77,South,174,0.0,0.0,99,-99.99,,,-99.99,,2013-01-15 16:33:00,
2013-01-15 17:42:00,46.0,46.0,29.77,South,174,0.0,0.0,99,-99.99,,,-99.99,,2013-01-15 16:42:00,
2013-01-15 17:53:00,45.0,45.0,29.77,SSE,147,0.0,0.0,99,-99.99,,,-99.99,,2013-01-15 16:53:00,
2013-01-15 18:03:00,44.0,44.0,29.77,SSE,147,0.0,0.0,99,-99.99,,,-99.99,,2013-01-15 17:03:00,
2013-01-15 18:12:00,44.0,44.0,29.77,SSE,147,0.0,0.0,99,-99.99,,,-99.99,,2013-01-15 17:12:00,
2013-01-15 18:22:00,43.0,43.0,29.77,SSE,148,0.0,0.0,99,-99.99,,,-99.99,,2013-01-15 17:22:00,
2013-01-15 18:32:00,42.0,39.0,29.77,SE,133,0.0,0.0,90,-99.99,,,-99.99,,2013-01-15 17:32:00,
2013-01-15 18:42:00,42.0,39.0,29.77,SE,133,0.0,0.0,90,-99.99,,,-99.99,,2013-01-15 17:42:00,
2013-01-15 18:53:00,42.0,38.0,29.80,SE,132,0.0,0.0,85,-99.99,,,-99.99,,2013-01-15 17:53:00,
2013-01-15 19:02:00,41.0,37.0,29.80,SE,132,0.0,0.0,87,-99.99,,,-99.99,,2013-01-15 18:02:00,
2013-01-15 19:12:00,41.0,37.0,29.80,SE,132,0.0,0.0,87,-99.99,,,-99.99,,2013-01-15 18:12:00,
2013-01-15 19:22:00,44.0,41.0,29.80,SE,133,0.0,0.0,88,-99.99,,,-99.99,,2013-01-15 18:22:00,
2013-01-15 19:33:00,45.0,42.0,29.80,SE,134,0.0,0.0,90,-99.99,,,-99.99,,2013-01-15 18:33:00,
2013-01-15 19:42:00,45.0,42.0,29.80,SE,134,0.0,0.0,90,-99.99,,,-99.99,,2013-01-15 18:42:00,
2013-01-15 19:52:00,45.0,42.0,29.80,SE,134,0.0,0.0,90,-99.99,,,-99.99,,2013-01-15 18:52:00,
2013-01-15 20:03:00,46.0,44.0,29.80,SE,135,0.0,0.0,91,-99.99,,,-99.99,,2013-01-15 19:03:00,
2013-01-15 20:12:00,46.0,44.0,29.80,SE,135,0.0,0.0,91,-99.99,,,-99.99,,2013-01-15 19:12:00,
2013-01-15 20:22:00,45.0,43.0,29.80,SE,136,0.0,0.0,91,-99.99,,,-99.99,,2013-01-15 19:22:00,
2013-01-15 20:33:00,44.0,42.0,29.80,SE,136,0.0,0.0,91,-99.99,,,-99.99,,2013-01-15 19:33:00,
2013-01-15 20:42:00,44.0,42.0,29.80,SE,136,0.0,0.0,91,-99.99,,,-99.99,,2013-01-15 19:42:00,
2013-01-15 20:52:00,43.0,41.0,29.80,SE,136,0.0,0.0,91,-99.99,,,-99.99,,2013-01-15 19:52:00,
2013-01-15 21:02:00,43.0,41.0,29.80,SE,136,0.0,0.0,91,-99.99,,,-99.99,,2013-01-15 20:02:00,
2013-01-15 21:12:00,43.0,41.0,29.80,SE,136,0.0,0.0,91,-99.99,,,-99.99,,2013-01-15 20:12:00,
2013-01-15 21:22:00,43.0,41.0,29.80,SE,136,0.0,0.0,91,-99.99,,,-99.99,,2013-01-15 20:22:00,
2013-01-15 21:32:00,43.0,41.0,29.80,SE,136,0.0,0.0,91,-99.99,,,-99.99,,2013-01-15 20:32:00,
2013-01-15 21:42:00,43.0,41.0,29.80,SE,136,0.0,0.0,91,-99.99,,,-99.99,,2013-01-15 20:42:00,
2013-01-15 21:53:00,41.0,38.0,29.80,SE,135,0.0,0.0,90,-99.99,,,-99.99,,2013-01-15 20:53:00,
2013-01-15 22:03:00,41.0,38.0,29.80,SE,135,0.0,0.0,90,-99.99,,,-99.99,,2013-01-15 21:03:00,
2013-01-15 22:12:00,41.0,38.0,29.80,SE,135,0.0,0.0,90,-99.99,,,-99.99,,2013-01-15 21:12:00,
2013-01-15 22:22:00,41.0,38.0,29.80,SE,133,0.0,0.0,90,-99.99,,,-99.99,,2013-01-15 21:22:00,
2013-01-15 22:33:00,41.0,38.0,29.83,SE,133,0.0,0.0,90,-99.99,,,-99.99,,2013-01-15 21:33:00,
2013-01-15 22:43:00,41.0,38.0,29.83,SE,133,0.0,0.0,90,-99.99,,,-99.99,,2013-01-15 21:43:00,
2013-01-15 22:53:00,41.0,38.0,29.83,SE,135,0.0,0.0,90,-99.99,,,-99.99,,2013-01-15 21:53:00,
2013-01-15 23:02:00,41.0,38.0,29.83,SE,135,0.0,0.0,90,-99.99,,,-99.99,,2013-01-15 22:02:00,
2013-01-15 23:11:00,41.0,38.0,29.83,SE,135,0.0,0.0,90,-99.99,,,-99.99,,2013-01-15 22:11:00,
2013-01-15 23:22:00,41.0,38.0,29.83,SE,136,0.0,0.0,90,-99.99,,,-99.99,,2013-01-15 22:22:00,
2013-01-15 23:32:00,40.0,38.0,29.83,SE,136,0.0,0.0,91,-99.99,,,-99.99,,2013-01-15 22:32:00,
2013-01-15 23:42:00,40.0,38.0,29.83,SE,136,0.0,0.0,91,-99.99,,,-99.99,,2013-01-15 22:42:00,
2013-01-15 23:52:00,40.0,38.0,29.83,SE,136,0.0,0.0,91,-99.99,,,-99.99,,2013-01-15 22:52:00,